Time;durP1;ratioP1;P1;durP2;ratioP2;P2;SDS_P1;SDS_P2;PMS_P1;PMS_P2;Temp;Humidity;BMP_temperature;BMP_pressure;BME280_temperature;BME280_humidity;BME280_pressure;Samples;Min_cycle;Max_cycle;Signal;HPM_P1;HPM_P2
2022/08/31 00:05:07;;;;;;;13.05;11.70;;;16.50;99.90;;;;;;5047304;28;20024;-83
2022/08/31 00:07:33;;;;;;;13.63;10.80;;;16.50;99.90;;;;;;5037832;28;20044;-83
2022/08/31 00:10:00;;;;;;;18.05;12.07;;;16.50;99.90;;;;;;5036079;28;20045;-83
2022/08/31 00:12:26;;;;;;;13.25;11.02;;;16.50;99.90;;;;;;5035713;28;20156;-83
2022/08/31 00:14:51;;;;;;;18.98;10.63;;;16.50;99.90;;;;;;5036060;28;20116;-83
2022/08/31 00:17:17;;;;;;;15.70;10.60;;;16.50;99.90;;;;;;5036101;28;20030;-82
2022/08/31 00:19:42;;;;;;;12.68;9.88;;;16.50;99.90;;;;;;5036120;28;20028;-83
2022/08/31 00:22:08;;;;;;;15.02;10.68;;;16.50;99.90;;;;;;5035983;28;20413;-83
2022/08/31 00:24:34;;;;;;;14.85;11.13;;;16.50;99.90;;;;;;5036078;28;20489;-83
2022/08/31 00:27:00;;;;;;;17.45;10.77;;;16.50;99.90;;;;;;5036088;28;20040;-83
2022/08/31 00:29:25;;;;;;;15.57;11.02;;;16.50;99.90;;;;;;5036225;28;20029;-82
2022/08/31 00:31:51;;;;;;;14.57;10.98;;;16.50;99.90;;;;;;5035932;28;20123;-83
2022/08/31 00:34:17;;;;;;;15.45;10.93;;;16.50;99.90;;;;;;5034342;28;20429;-83
2022/08/31 00:36:46;;;;;;;13.38;11.23;;;16.50;99.90;;;;;;5052015;28;20394;-83
2022/08/31 00:39:12;;;;;;;14.77;11.27;;;16.50;99.90;;;;;;5046889;28;20037;-83
2022/08/31 00:41:37;;;;;;;16.40;10.65;;;16.50;99.90;;;;;;5050224;28;20485;-83
2022/08/31 00:44:06;;;;;;;13.85;10.90;;;16.50;99.90;;;;;;5039645;28;20029;-83
2022/08/31 00:46:39;;;;;;;11.93;10.48;;;16.50;99.90;;;;;;5035442;28;20439;-83
2022/08/31 00:49:09;;;;;;;14.75;10.35;;;16.50;99.90;;;;;;5035512;28;20052;-83
2022/08/31 00:51:42;;;;;;;17.05;11.25;;;16.50;99.90;;;;;;5035265;28;20033;-83
2022/08/31 00:54:11;;;;;;;15.50;11.82;;;16.50;99.90;;;;;;5035270;28;20033;-83
2022/08/31 00:56:38;;;;;;;13.48;11.20;;;16.50;99.90;;;;;;5035200;28;20064;-83
2022/08/31 00:59:04;;;;;;;14.10;11.15;;;16.50;99.90;;;;;;5048972;28;20057;-83
2022/08/31 01:01:29;;;;;;;12.80;10.65;;;16.50;99.90;;;;;;5034118;28;20048;-83
2022/08/31 01:03:56;;;;;;;16.80;12.07;;;16.50;99.90;;;;;;5034384;28;20079;-83
2022/08/31 01:06:22;;;;;;;14.30;11.45;;;16.50;99.90;;;;;;5034956;28;20025;-83
2022/08/31 01:08:50;;;;;;;14.13;12.32;;;16.50;99.90;;;;;;5048388;28;20078;-83
2022/08/31 01:11:17;;;;;;;16.60;12.45;;;16.50;99.90;;;;;;5034379;28;20047;-83
2022/08/31 01:13:46;;;;;;;12.63;11.30;;;16.50;99.90;;;;;;5034668;28;20036;-83
2022/08/31 01:16:24;;;;;;;14.98;12.57;;;16.50;99.90;;;;;;5028419;28;20466;-83
2022/08/31 01:18:52;;;;;;;15.18;11.85;;;16.50;99.90;;;;;;5033502;28;20029;-83
2022/08/31 01:21:27;;;;;;;12.88;11.38;;;16.50;99.90;;;;;;5034523;28;20363;-83
2022/08/31 01:23:56;;;;;;;14.90;11.80;;;16.50;99.90;;;;;;5034484;28;20067;-83
2022/08/31 01:26:25;;;;;;;13.60;11.90;;;16.50;99.90;;;;;;5034463;28;20437;-83
2022/08/31 01:28:56;;;;;;;14.38;11.27;;;16.50;99.90;;;;;;5027331;28;20393;-83
2022/08/31 01:31:27;;;;;;;13.00;11.48;;;16.50;99.90;;;;;;5029407;28;20398;-83
2022/08/31 01:33:53;;;;;;;14.55;11.45;;;16.50;99.90;;;;;;5035202;28;20096;-83
2022/08/31 01:36:19;;;;;;;14.07;11.80;;;16.50;99.90;;;;;;5035126;28;20112;-83
2022/08/31 01:38:46;;;;;;;15.95;12.02;;;16.50;99.90;;;;;;5034160;28;20048;-83
2022/08/31 01:41:11;;;;;;;15.52;11.30;;;16.50;99.90;;;;;;5033931;28;20037;-83
2022/08/31 01:43:37;;;;;;;12.98;11.05;;;16.40;99.90;;;;;;5032283;28;20119;-83
2022/08/31 01:46:09;;;;;;;14.40;12.23;;;16.50;99.90;;;;;;5034030;28;20022;-82
2022/08/31 01:48:36;;;;;;;13.27;11.15;;;16.50;99.90;;;;;;5035848;28;20030;-84
2022/08/31 01:51:03;;;;;;;13.75;11.32;;;16.50;99.90;;;;;;5046221;28;20025;-83
2022/08/31 01:53:29;;;;;;;13.93;11.70;;;16.50;99.90;;;;;;5020005;28;20030;-83
2022/08/31 01:55:55;;;;;;;13.20;11.25;;;16.50;99.90;;;;;;5033865;28;20037;-83
2022/08/31 01:58:21;;;;;;;15.15;11.70;;;16.40;99.90;;;;;;5033895;28;20025;-83
2022/08/31 02:00:46;;;;;;;15.98;11.95;;;16.40;99.90;;;;;;5033428;28;20052;-82
2022/08/31 02:03:12;;;;;;;11.73;10.52;;;16.40;99.90;;;;;;5033499;28;20417;-83
2022/08/31 02:05:38;;;;;;;13.85;11.57;;;16.40;99.90;;;;;;5033828;28;20029;-83
2022/08/31 02:08:06;;;;;;;13.07;11.13;;;16.40;99.90;;;;;;5033702;28;20029;-83
2022/08/31 02:10:31;;;;;;;14.18;10.48;;;16.40;99.90;;;;;;5033554;28;20094;-83
2022/08/31 02:12:57;;;;;;;16.23;11.55;;;16.40;99.90;;;;;;5019267;28;20204;-82
2022/08/31 02:15:22;;;;;;;15.43;12.65;;;16.30;99.90;;;;;;5013843;28;20033;-83
2022/08/31 02:17:48;;;;;;;18.17;14.15;;;16.30;99.90;;;;;;5031657;28;20031;-82
2022/08/31 02:20:14;;;;;;;16.55;13.45;;;16.30;99.90;;;;;;5033237;28;20049;-83
2022/08/31 02:22:40;;;;;;;20.08;13.02;;;16.20;99.90;;;;;;5033350;28;20021;-83
2022/08/31 02:25:06;;;;;;;13.88;12.43;;;16.20;99.90;;;;;;5033251;28;20032;-83
2022/08/31 02:27:33;;;;;;;14.13;11.90;;;16.20;99.90;;;;;;5032832;28;20024;-83
2022/08/31 02:29:58;;;;;;;16.00;12.77;;;16.20;99.90;;;;;;5047104;28;20050;-83
2022/08/31 02:32:24;;;;;;;13.85;11.63;;;16.20;99.90;;;;;;5033391;28;20446;-83
2022/08/31 02:34:50;;;;;;;16.98;12.20;;;16.20;99.90;;;;;;5033061;28;20140;-83
2022/08/31 02:37:17;;;;;;;18.70;11.93;;;16.20;99.90;;;;;;5033232;28;20057;-83
2022/08/31 02:39:43;;;;;;;16.30;11.73;;;16.20;99.90;;;;;;5045859;28;20455;-83
2022/08/31 02:42:09;;;;;;;14.30;11.10;;;16.30;99.90;;;;;;5033619;28;20029;-83
2022/08/31 02:44:34;;;;;;;14.70;12.00;;;16.30;99.90;;;;;;5022105;28;20060;-83
2022/08/31 02:47:00;;;;;;;13.60;11.70;;;16.30;99.90;;;;;;5043822;28;20427;-83
2022/08/31 02:49:25;;;;;;;14.70;11.10;;;16.30;99.90;;;;;;5032719;28;20030;-83
2022/08/31 02:51:51;;;;;;;12.75;11.43;;;16.30;99.90;;;;;;5032678;28;20036;-83
2022/08/31 02:54:17;;;;;;;15.27;11.25;;;16.30;99.90;;;;;;5043049;28;20044;-83
2022/08/31 02:56:42;;;;;;;16.85;12.18;;;16.30;99.90;;;;;;5034738;28;20098;-83
2022/08/31 02:59:10;;;;;;;14.02;12.38;;;16.30;99.90;;;;;;5052390;28;20047;-83
2022/08/31 03:01:36;;;;;;;18.58;12.40;;;16.20;99.90;;;;;;5039770;28;20025;-83
2022/08/31 03:04:02;;;;;;;18.15;12.65;;;16.30;99.90;;;;;;5032276;28;20029;-83
2022/08/31 03:06:30;;;;;;;16.38;12.13;;;16.30;99.90;;;;;;5032957;28;20021;-83
2022/08/31 03:08:56;;;;;;;15.60;12.48;;;16.30;99.90;;;;;;5032781;28;20025;-83
2022/08/31 03:11:21;;;;;;;15.73;12.50;;;16.30;99.90;;;;;;5032871;28;20515;-83
2022/08/31 03:13:47;;;;;;;15.27;11.45;;;16.20;99.90;;;;;;5032611;28;20107;-83
2022/08/31 03:16:14;;;;;;;15.77;12.82;;;16.30;99.90;;;;;;5032246;28;20044;-83
2022/08/31 03:18:40;;;;;;;18.75;12.73;;;16.30;99.90;;;;;;5032576;28;20319;-83
2022/08/31 03:21:06;;;;;;;16.73;12.60;;;16.30;99.90;;;;;;5032459;28;20034;-83
2022/08/31 03:23:32;;;;;;;14.50;12.00;;;16.30;99.90;;;;;;5034354;28;20079;-83
2022/08/31 03:25:58;;;;;;;16.40;12.20;;;16.20;99.90;;;;;;5032596;28;20040;-83
2022/08/31 03:28:24;;;;;;;15.95;12.85;;;16.20;99.90;;;;;;5032272;28;20025;-83
2022/08/31 03:30:49;;;;;;;19.08;12.40;;;16.20;99.90;;;;;;5033322;28;20041;-83
2022/08/31 03:33:15;;;;;;;14.88;12.40;;;16.20;99.90;;;;;;5032495;28;20061;-83
2022/08/31 03:35:42;;;;;;;17.08;12.73;;;16.20;99.90;;;;;;5032241;28;20394;-83
2022/08/31 03:38:11;;;;;;;15.20;11.55;;;16.20;99.90;;;;;;5032861;28;20029;-83
2022/08/31 03:40:37;;;;;;;13.40;12.00;;;16.20;99.90;;;;;;5037664;28;20030;-83
2022/08/31 03:43:03;;;;;;;15.15;12.18;;;16.20;99.90;;;;;;5036918;28;20100;-82
2022/08/31 03:45:30;;;;;;;15.80;11.45;;;16.10;99.90;;;;;;5036843;28;20111;-82
2022/08/31 03:47:58;;;;;;;17.02;13.50;;;16.20;99.90;;;;;;5029350;28;20033;-83
2022/08/31 03:50:24;;;;;;;16.58;13.15;;;16.10;99.90;;;;;;5031779;28;20036;-83
2022/08/31 03:52:49;;;;;;;16.05;12.30;;;16.20;99.90;;;;;;5037236;28;20056;-83
2022/08/31 03:55:15;;;;;;;16.30;11.50;;;16.20;99.90;;;;;;5037001;28;20031;-82
2022/08/31 03:57:41;;;;;;;14.13;11.48;;;16.10;99.90;;;;;;5036840;28;20060;-82
2022/08/31 04:00:08;;;;;;;15.05;12.10;;;16.20;99.90;;;;;;5036567;28;20033;-82
2022/08/31 04:02:37;;;;;;;14.82;11.43;;;16.10;99.90;;;;;;5037701;28;20083;-83
2022/08/31 04:05:02;;;;;;;13.68;11.93;;;16.10;99.90;;;;;;5056569;28;20067;-83
2022/08/31 04:07:28;;;;;;;13.50;11.82;;;16.10;99.90;;;;;;5042773;28;20410;-83
2022/08/31 04:09:53;;;;;;;13.25;11.48;;;16.10;99.90;;;;;;5036334;28;20033;-83
2022/08/31 04:12:19;;;;;;;16.13;11.50;;;16.10;99.90;;;;;;5047925;28;20033;-83
2022/08/31 04:14:45;;;;;;;15.80;12.02;;;16.20;99.90;;;;;;5051158;28;20030;-83
2022/08/31 04:17:11;;;;;;;16.52;12.05;;;16.20;99.90;;;;;;5036329;28;20041;-83
2022/08/31 04:19:39;;;;;;;16.00;12.15;;;16.20;99.90;;;;;;5035696;28;20417;-83
2022/08/31 04:22:05;;;;;;;18.52;12.05;;;16.20;99.90;;;;;;5035593;28;20120;-83
2022/08/31 04:24:31;;;;;;;19.10;13.10;;;16.10;99.90;;;;;;5049769;28;20446;-82
2022/08/31 04:26:56;;;;;;;16.50;12.68;;;16.10;99.90;;;;;;5035887;28;20463;-83
2022/08/31 04:29:22;;;;;;;17.83;14.50;;;16.10;99.90;;;;;;5035492;28;20042;-83
2022/08/31 04:31:48;;;;;;;17.88;13.35;;;16.10;99.90;;;;;;5035217;28;20038;-83
2022/08/31 04:34:13;;;;;;;18.50;14.02;;;16.10;99.90;;;;;;5045260;28;20082;-83
2022/08/31 04:36:40;;;;;;;17.05;12.73;;;16.00;99.90;;;;;;5039061;28;20030;-83
2022/08/31 04:39:06;;;;;;;15.68;13.07;;;16.10;99.90;;;;;;5035103;28;20029;-83
2022/08/31 04:41:35;;;;;;;19.35;12.95;;;16.10;99.90;;;;;;5035051;28;20029;-82
2022/08/31 04:44:02;;;;;;;14.43;12.80;;;16.00;99.90;;;;;;5035504;28;20441;-83
2022/08/31 04:46:29;;;;;;;15.52;13.27;;;16.00;99.90;;;;;;5035442;28;20075;-83
2022/08/31 04:48:56;;;;;;;18.20;13.70;;;16.00;99.90;;;;;;5034908;28;20451;-83
2022/08/31 04:51:30;;;;;;;20.05;13.88;;;16.00;99.90;;;;;;5035178;28;20029;-83
2022/08/31 04:53:56;;;;;;;19.95;14.32;;;16.00;99.90;;;;;;5020984;28;20117;-83
2022/08/31 04:56:25;;;;;;;21.27;14.15;;;16.00;99.90;;;;;;5035008;28;20080;-83
2022/08/31 04:58:56;;;;;;;16.75;13.57;;;16.00;99.90;;;;;;5034670;28;20064;-83
2022/08/31 05:01:24;;;;;;;16.10;13.38;;;16.10;99.90;;;;;;5034800;28;20025;-83
2022/08/31 05:03:51;;;;;;;18.60;13.25;;;16.10;99.90;;;;;;5034314;28;20439;-83
2022/08/31 05:06:19;;;;;;;18.80;13.20;;;16.10;99.90;;;;;;5034338;28;20025;-83
2022/08/31 05:08:44;;;;;;;17.73;12.52;;;16.10;99.90;;;;;;5034798;28;20078;-82
2022/08/31 05:11:13;;;;;;;15.65;12.30;;;16.20;99.90;;;;;;5034536;28;20029;-83
2022/08/31 05:13:39;;;;;;;20.35;13.05;;;16.20;99.90;;;;;;5034853;28;20029;-82
2022/08/31 05:16:08;;;;;;;19.15;13.10;;;16.20;99.90;;;;;;5035443;28;20122;-83
2022/08/31 05:18:34;;;;;;;18.58;12.15;;;16.20;99.90;;;;;;5045501;28;20065;-83
2022/08/31 05:21:10;;;;;;;14.45;12.70;;;16.20;99.90;;;;;;5034498;28;20139;-83
2022/08/31 05:23:36;;;;;;;14.88;12.60;;;16.30;99.90;;;;;;5035930;28;20486;-83
2022/08/31 05:26:02;;;;;;;15.85;13.50;;;16.20;99.90;;;;;;5030624;28;20152;-83
2022/08/31 05:28:27;;;;;;;18.77;13.40;;;16.30;99.90;;;;;;5033238;28;20112;-83
2022/08/31 05:30:53;;;;;;;17.45;12.40;;;16.30;99.90;;;;;;5033549;28;20037;-83
2022/08/31 05:33:19;;;;;;;16.30;12.80;;;16.20;99.90;;;;;;5033229;28;20386;-84
2022/08/31 05:35:47;;;;;;;19.13;12.80;;;16.30;99.90;;;;;;5030527;28;20391;-83
2022/08/31 05:38:12;;;;;;;17.88;13.00;;;16.30;99.90;;;;;;5019864;28;20026;-83
2022/08/31 05:40:38;;;;;;;17.65;14.20;;;16.40;99.90;;;;;;5032763;28;20052;-84
2022/08/31 05:43:03;;;;;;;14.85;12.73;;;16.40;99.90;;;;;;5032872;28;20057;-83
2022/08/31 05:45:29;;;;;;;18.67;13.68;;;16.40;99.90;;;;;;5027025;28;20057;-83
2022/08/31 05:47:55;;;;;;;17.33;12.85;;;16.40;99.90;;;;;;5036184;28;20390;-83
2022/08/31 05:50:21;;;;;;;16.30;12.60;;;16.50;99.90;;;;;;5038135;28;20040;-83
2022/08/31 05:52:46;;;;;;;19.92;12.93;;;16.60;99.90;;;;;;5032647;28;20029;-83
2022/08/31 05:55:12;;;;;;;18.80;13.10;;;16.60;99.90;;;;;;5032263;28;20112;-83
2022/08/31 05:57:39;;;;;;;21.67;12.52;;;16.70;99.90;;;;;;5032398;28;20470;-83
2022/08/31 06:00:07;;;;;;;17.48;13.38;;;16.70;99.90;;;;;;5027514;28;20416;-84
2022/08/31 06:02:32;;;;;;;15.52;12.25;;;16.80;99.90;;;;;;5046860;28;20027;-83
2022/08/31 06:04:58;;;;;;;18.20;12.10;;;16.80;99.90;;;;;;5052078;28;20017;-84
2022/08/31 06:07:24;;;;;;;17.88;12.35;;;16.90;99.90;;;;;;5052508;28;20051;-83
2022/08/31 06:09:50;;;;;;;15.65;13.13;;;16.90;99.90;;;;;;5051934;28;20021;-83
2022/08/31 06:12:18;;;;;;;14.48;11.68;;;17.00;99.90;;;;;;5040740;28;20538;-83
2022/08/31 06:14:44;;;;;;;18.27;12.10;;;16.90;99.90;;;;;;5035814;28;20068;-83
2022/08/31 06:17:09;;;;;;;17.90;11.93;;;17.00;99.90;;;;;;5032867;28;20041;-83
2022/08/31 06:19:36;;;;;;;17.70;12.43;;;16.90;99.90;;;;;;5029773;28;20184;-84
2022/08/31 06:22:02;;;;;;;14.95;12.55;;;16.90;99.90;;;;;;5030471;28;20041;-83
2022/08/31 06:24:27;;;;;;;14.63;11.75;;;16.90;99.90;;;;;;5029884;28;20065;-83
2022/08/31 06:26:56;;;;;;;15.98;12.57;;;16.90;99.90;;;;;;5030430;28;20064;-84
2022/08/31 06:29:21;;;;;;;16.38;12.45;;;16.90;99.90;;;;;;5030388;28;20038;-83
2022/08/31 06:31:47;;;;;;;16.30;12.90;;;16.90;99.90;;;;;;5029363;28;20021;-83
2022/08/31 06:34:18;;;;;;;18.75;12.57;;;16.90;99.90;;;;;;5029693;28;20087;-84
2022/08/31 06:36:45;;;;;;;16.33;12.55;;;16.90;99.90;;;;;;5029711;28;20029;-84
2022/08/31 06:39:11;;;;;;;15.80;12.02;;;16.90;99.90;;;;;;5030060;28;20033;-83
2022/08/31 06:41:38;;;;;;;18.08;11.68;;;16.90;99.90;;;;;;5030090;28;20390;-84
2022/08/31 06:44:08;;;;;;;14.85;11.73;;;17.00;99.90;;;;;;5029310;28;20033;-83
2022/08/31 06:46:35;;;;;;;15.40;12.48;;;16.90;99.90;;;;;;5029423;28;20073;-84
2022/08/31 06:49:02;;;;;;;18.30;13.27;;;17.00;99.90;;;;;;5029647;28;20033;-84
2022/08/31 06:51:28;;;;;;;15.68;13.02;;;16.90;99.90;;;;;;5029094;28;20038;-83
2022/08/31 06:53:54;;;;;;;15.68;12.82;;;17.00;99.90;;;;;;5027735;28;20037;-84
2022/08/31 06:56:24;;;;;;;16.45;13.25;;;16.90;99.90;;;;;;5030157;28;20050;-83
2022/08/31 06:58:52;;;;;;;15.45;12.88;;;16.90;99.90;;;;;;5035349;28;20036;-83
2022/08/31 07:01:20;;;;;;;19.02;13.30;;;16.90;99.90;;;;;;5028131;28;20033;-84
2022/08/31 07:03:48;;;;;;;18.17;13.13;;;16.90;99.90;;;;;;5028824;28;20029;-84
2022/08/31 07:06:17;;;;;;;18.40;13.90;;;16.90;99.90;;;;;;5028804;28;20468;-83
2022/08/31 07:08:45;;;;;;;14.57;12.45;;;17.00;99.90;;;;;;5028627;28;20029;-84
2022/08/31 07:11:18;;;;;;;15.38;12.93;;;17.00;99.90;;;;;;5028744;28;20222;-83
2022/08/31 07:13:43;;;;;;;16.83;12.60;;;17.10;99.90;;;;;;5028182;28;20104;-83
2022/08/31 07:16:13;;;;;;;19.52;12.43;;;17.10;99.90;;;;;;5027675;28;20175;-83
2022/08/31 07:18:39;;;;;;;17.02;12.73;;;17.20;99.90;;;;;;5029131;28;20071;-83
2022/08/31 07:21:17;;;;;;;15.02;12.45;;;17.20;99.90;;;;;;5028745;28;20033;-84
2022/08/31 07:23:44;;;;;;;16.88;12.13;;;17.20;99.90;;;;;;5027261;28;20037;-83
2022/08/31 07:26:24;;;;;;;15.82;10.77;;;17.30;99.90;;;;;;5028915;28;20025;-84
2022/08/31 07:28:52;;;;;;;20.52;11.38;;;17.30;99.90;;;;;;5028564;28;20034;-84
2022/08/31 07:31:23;;;;;;;15.02;11.95;;;17.30;99.90;;;;;;5028795;28;20112;-83
2022/08/31 07:33:51;;;;;;;17.27;11.90;;;17.40;99.90;;;;;;5028112;28;20033;-83
2022/08/31 07:36:17;;;;;;;17.67;12.82;;;17.40;99.90;;;;;;5028816;28;20052;-83
2022/08/31 07:44:14;;;;;;;17.92;13.35;;;17.40;99.90;;;;;;5023210;28;20048;-84
2022/08/31 07:46:40;;;;;;;20.50;12.40;;;17.40;99.90;;;;;;5027138;28;20462;-83
2022/08/31 07:49:12;;;;;;;18.00;12.30;;;17.50;99.90;;;;;;5028429;28;20033;-83
2022/08/31 07:51:44;;;;;;;17.13;11.88;;;17.50;99.90;;;;;;5028091;28;20026;-84
2022/08/31 07:54:13;;;;;;;24.40;13.52;;;17.50;99.90;;;;;;5028244;28;20038;-83
2022/08/31 07:56:40;;;;;;;16.90;12.20;;;17.70;99.90;;;;;;5027363;28;20042;-83
2022/08/31 07:59:06;;;;;;;16.00;12.27;;;17.70;99.90;;;;;;5028140;28;20140;-84
2022/08/31 08:01:36;;;;;;;20.08;13.27;;;17.70;99.90;;;;;;5028300;28;20649;-83
2022/08/31 08:04:02;;;;;;;20.05;12.20;;;17.80;99.90;;;;;;5041471;28;20029;-83
2022/08/31 08:06:29;;;;;;;13.55;11.38;;;17.80;99.90;;;;;;5045116;28;20474;-84
2022/08/31 08:09:02;;;;;;;16.42;11.48;;;17.90;99.90;;;;;;5049006;28;20029;-84
2022/08/31 08:11:27;;;;;;;16.25;12.18;;;18.00;99.90;;;;;;5034129;28;20086;-84
2022/08/31 08:13:53;;;;;;;17.33;12.07;;;18.00;99.90;;;;;;5029312;28;20021;-84
2022/08/31 08:16:19;;;;;;;17.45;11.70;;;18.10;99.90;;;;;;5042483;28;20017;-84
2022/08/31 08:18:44;;;;;;;22.42;12.52;;;18.10;99.90;;;;;;5028637;28;20021;-80
2022/08/31 08:21:10;;;;;;;19.33;12.20;;;18.20;99.90;;;;;;5038770;28;20084;-79
2022/08/31 08:23:35;;;;;;;17.77;12.07;;;18.30;99.90;;;;;;5026692;28;20026;-84
2022/08/31 08:26:07;;;;;;;18.35;11.98;;;18.30;99.90;;;;;;5030940;28;20040;-84
2022/08/31 08:28:33;;;;;;;18.42;11.95;;;18.40;99.90;;;;;;5032021;28;20052;-84
2022/08/31 08:31:01;;;;;;;16.05;11.38;;;18.40;99.90;;;;;;5031670;28;20478;-84
2022/08/31 08:33:28;;;;;;;19.05;11.77;;;18.50;99.90;;;;;;5032775;28;20037;-84
2022/08/31 08:35:59;;;;;;;17.15;11.75;;;18.60;99.90;;;;;;5032639;28;20033;-84
2022/08/31 08:38:29;;;;;;;15.43;11.27;;;18.60;99.90;;;;;;5032266;28;20025;-84
2022/08/31 08:41:00;;;;;;;16.52;11.07;;;18.70;99.90;;;;;;5030915;28;20033;-84
2022/08/31 08:43:34;;;;;;;15.25;10.65;;;18.90;99.90;;;;;;5032130;28;20330;-84
2022/08/31 08:46:02;;;;;;;17.15;11.35;;;19.00;99.90;;;;;;5032326;28;20037;-84
2022/08/31 08:48:32;;;;;;;14.52;11.10;;;19.20;99.90;;;;;;5032180;28;20033;-83
2022/08/31 08:51:02;;;;;;;13.55;10.70;;;19.20;99.90;;;;;;5032056;28;20505;-84
2022/08/31 08:53:30;;;;;;;15.30;10.45;;;19.30;99.90;;;;;;5031950;28;20026;-84
2022/08/31 08:55:56;;;;;;;17.02;10.45;;;19.30;99.90;;;;;;5031322;28;20045;-84
2022/08/31 08:58:24;;;;;;;17.42;11.23;;;19.40;99.90;;;;;;5031231;28;20091;-84
2022/08/31 09:00:53;;;;;;;17.40;11.25;;;19.50;99.90;;;;;;5031935;28;20080;-84
2022/08/31 09:03:20;;;;;;;18.92;11.77;;;19.70;99.90;;;;;;5031175;28;20088;-84
2022/08/31 09:05:59;;;;;;;17.50;10.98;;;19.70;99.90;;;;;;5031137;28;20029;-84
2022/08/31 09:08:33;;;;;;;21.33;11.27;;;19.80;99.90;;;;;;5031951;28;20061;-80
2022/08/31 09:11:22;;;;;;;15.88;10.80;;;19.90;99.90;;;;;;5031240;28;20100;-80
2022/08/31 09:14:26;;;;;;;13.32;10.07;;;20.00;99.90;;;;;;5031825;28;20022;-80
2022/08/31 09:17:04;;;;;;;19.45;10.75;;;20.20;99.90;;;;;;5031687;28;20468;-80
2022/08/31 09:19:57;;;;;;;16.33;11.10;;;20.20;99.90;;;;;;5031346;28;20508;-80
2022/08/31 09:22:19;;;;;;;16.52;10.65;;;20.10;99.90;;;;;;5030904;28;20025;-81
2022/08/31 09:24:49;;;;;;;13.00;9.98;;;20.20;99.90;;;;;;5031473;28;20482;-80
2022/08/31 09:27:18;;;;;;;13.45;9.93;;;20.10;99.90;;;;;;5031658;28;20022;-80
2022/08/31 09:29:45;;;;;;;17.23;9.80;;;20.00;99.90;;;;;;5031442;28;20112;-80
2022/08/31 09:32:22;;;;;;;18.10;9.05;;;20.10;99.90;;;;;;5031260;28;20517;-80
2022/08/31 09:35:02;;;;;;;18.35;10.23;;;20.10;99.90;;;;;;5040611;28;20557;-80
2022/08/31 09:37:36;;;;;;;13.50;9.73;;;20.20;99.90;;;;;;5032652;28;20037;-80
2022/08/31 09:40:19;;;;;;;15.93;9.85;;;20.20;99.90;;;;;;5029758;28;20477;-80
2022/08/31 09:43:00;;;;;;;13.35;9.43;;;20.30;99.90;;;;;;5030804;28;20053;-80
2022/08/31 09:45:35;;;;;;;17.50;10.15;;;20.20;99.90;;;;;;5030398;28;20021;-80
2022/08/31 09:48:05;;;;;;;;;;;20.30;99.90;;;;;;5031700;28;20029;-80
2022/08/31 09:50:43;;;;;;;14.00;10.00;;;20.20;99.90;;;;;;5030283;28;20816;-80
2022/08/31 09:56:23;;;;;;;12.43;8.48;;;20.40;99.90;;;;;;5031460;28;20060;-80
2022/08/31 09:58:53;;;;;;;12.20;8.85;;;20.60;99.90;;;;;;5029564;28;20075;-80
2022/08/31 10:01:22;;;;;;;15.40;9.63;;;20.90;99.90;;;;;;5031223;28;20108;-80
2022/08/31 10:03:48;;;;;;;14.35;9.00;;;21.00;99.90;;;;;;5030898;28;20029;-80
2022/08/31 10:06:40;;;;;;;14.77;8.77;;;21.00;99.90;;;;;;5030976;28;20026;-80
2022/08/31 10:09:16;;;;;;;11.90;8.52;;;21.00;99.90;;;;;;5029415;28;20434;-80
2022/08/31 10:11:46;;;;;;;16.27;8.90;;;21.00;99.90;;;;;;5031085;28;20036;-80
2022/08/31 10:14:50;;;;;;;16.95;7.95;;;21.00;99.90;;;;;;5030073;28;20022;-80
2022/08/31 10:17:24;;;;;;;14.80;7.78;;;21.10;99.90;;;;;;5030326;28;20088;-80
2022/08/31 10:19:55;;;;;;;;;;;21.20;99.90;;;;;;5031041;28;20079;-80
2022/08/31 10:22:30;;;;;;;14.20;7.57;;;21.20;99.90;;;;;;5030537;28;19952;-80
2022/08/31 10:25:14;;;;;;;11.65;7.32;;;21.20;99.90;;;;;;5030494;28;20068;-80
2022/08/31 10:28:02;;;;;;;15.57;8.90;;;21.20;99.90;;;;;;5040979;28;20024;-80
2022/08/31 10:30:32;;;;;;;12.13;7.45;;;21.20;99.90;;;;;;5030465;28;20103;-80
2022/08/31 10:33:16;;;;;;;11.55;7.25;;;21.30;99.90;;;;;;5031064;28;20041;-80
2022/08/31 10:35:56;;;;;;;9.63;7.63;;;21.50;99.90;;;;;;5038605;28;20402;-80
2022/08/31 10:38:38;;;;;;;12.15;7.70;;;21.60;99.90;;;;;;5032371;28;20280;-80
2022/08/31 10:41:22;;;;;;;11.75;7.80;;;21.50;99.90;;;;;;5038860;28;20036;-80
2022/08/31 10:44:04;;;;;;;15.65;8.10;;;21.40;99.90;;;;;;5031847;28;20513;-79
2022/08/31 10:46:31;;;;;;;14.05;7.28;;;21.30;99.90;;;;;;5031350;28;20034;-79
2022/08/31 10:48:58;;;;;;;10.88;7.63;;;21.20;99.90;;;;;;5030556;28;20032;-80
2022/08/31 10:51:58;;;;;;;13.23;8.18;;;21.10;99.90;;;;;;5028452;28;20497;-79
2022/08/31 10:54:53;;;;;;;11.68;7.13;;;21.10;99.90;;;;;;5025322;28;20057;-79
2022/08/31 10:57:33;;;;;;;10.97;7.47;;;21.00;99.90;;;;;;5029172;28;20037;-79
2022/08/31 11:00:40;;;;;;;11.13;7.43;;;21.10;99.90;;;;;;5036775;28;20033;-75
2022/08/31 11:03:09;;;;;;;13.75;8.07;;;21.00;99.90;;;;;;5034172;28;20399;-77
2022/08/31 11:05:53;;;;;;;10.80;7.43;;;20.90;99.90;;;;;;5041907;28;20110;-77
2022/08/31 11:08:48;;;;;;;12.73;7.75;;;20.80;99.90;;;;;;5029103;28;20020;-77
2022/08/31 11:11:27;;;;;;;11.73;7.53;;;20.80;99.90;;;;;;5029468;28;20057;-77
2022/08/31 11:14:25;;;;;;;11.38;7.22;;;20.70;99.90;;;;;;5020871;28;20389;-76
2022/08/31 11:17:18;;;;;;;13.30;8.07;;;20.70;99.90;;;;;;5028652;28;20047;-76
2022/08/31 11:20:08;;;;;;;10.52;7.10;;;20.70;99.90;;;;;;5028314;28;20482;-76
2022/08/31 11:22:55;;;;;;;11.80;8.43;;;20.70;99.90;;;;;;5034347;28;20030;-77
2022/08/31 11:25:57;;;;;;;14.40;8.23;;;20.70;99.90;;;;;;5026241;28;20088;-77
2022/08/31 11:28:38;;;;;;;12.88;7.43;;;20.60;99.90;;;;;;5037373;28;20474;-76
2022/08/31 11:31:19;;;;;;;12.80;7.53;;;20.50;99.90;;;;;;5027289;28;20116;-76
2022/08/31 11:33:49;;;;;;;14.80;8.07;;;20.40;99.90;;;;;;5040148;28;20039;-77
2022/08/31 11:36:48;;;;;;;15.30;7.95;;;20.40;99.90;;;;;;5028404;28;20109;-77
2022/08/31 11:39:25;;;;;;;11.98;8.55;;;20.20;99.90;;;;;;5027405;28;20068;-80
2022/08/31 11:41:52;;;;;;;16.90;8.73;;;20.10;99.90;;;;;;5039013;28;20155;-79
2022/08/31 11:44:38;;;;;;;16.27;9.63;;;20.00;99.90;;;;;;5028051;28;20127;-80
2022/08/31 11:47:07;;;;;;;19.73;11.27;;;19.80;99.90;;;;;;5024965;28;20061;-80
2022/08/31 11:49:42;;;;;;;15.63;10.55;;;19.70;99.90;;;;;;5030429;28;20036;-79
2022/08/31 11:52:23;;;;;;;16.83;12.38;;;19.60;99.90;;;;;;5028748;28;20498;-79
2022/08/31 11:54:49;;;;;;;15.70;10.77;;;19.30;99.90;;;;;;5029025;28;20079;-79
2022/08/31 11:57:19;;;;;;;13.40;10.82;;;19.00;99.90;;;;;;5029224;28;20049;-78
2022/08/31 11:59:47;;;;;;;15.35;12.23;;;18.70;99.90;;;;;;5030883;28;20052;-78
2022/08/31 12:02:18;;;;;;;13.93;10.88;;;18.40;99.90;;;;;;5040717;28;20029;-78
2022/08/31 12:04:47;;;;;;;15.70;12.18;;;18.20;99.90;;;;;;5034696;28;20370;-78
2022/08/31 12:07:33;;;;;;;14.70;9.95;;;18.10;99.90;;;;;;5033942;28;20466;-78
2022/08/31 12:10:14;;;;;;;13.10;10.80;;;17.90;99.90;;;;;;5034350;28;20056;-77
2022/08/31 12:13:17;;;;;;;14.77;10.23;;;17.80;99.90;;;;;;5034212;28;20026;-78
2022/08/31 12:16:03;;;;;;;12.32;9.30;;;17.70;99.90;;;;;;5034453;28;20040;-78
2022/08/31 12:18:52;;;;;;;12.70;9.38;;;17.60;99.90;;;;;;5032667;28;20043;-84
2022/08/31 12:24:34;;;;;;;13.32;9.80;;;17.40;99.90;;;;;;5031721;28;20976;-84
2022/08/31 12:27:23;;;;;;;12.68;9.27;;;17.40;99.90;;;;;;5031901;28;20033;-84
2022/08/31 12:29:49;;;;;;;10.05;7.70;;;17.40;99.90;;;;;;5031497;28;20025;-84
2022/08/31 12:32:36;;;;;;;12.18;8.13;;;17.30;99.90;;;;;;5031903;28;20037;-84
2022/08/31 12:35:24;;;;;;;10.45;7.40;;;17.20;99.90;;;;;;5031958;28;20056;-85
2022/08/31 12:38:00;;;;;;;16.33;9.07;;;17.10;99.90;;;;;;5032691;28;20082;-84
2022/08/31 12:40:47;;;;;;;14.13;8.43;;;17.00;99.90;;;;;;5032470;28;20021;-84
2022/08/31 12:43:16;;;;;;;15.52;8.73;;;16.90;99.90;;;;;;5032369;28;20095;-84
2022/08/31 12:46:01;;;;;;;15.60;8.30;;;16.80;99.90;;;;;;5032545;28;20091;-84
2022/08/31 12:48:41;;;;;;;13.02;8.40;;;16.70;99.90;;;;;;5032570;28;20021;-85
2022/08/31 12:51:19;;;;;;;12.98;8.25;;;16.70;99.90;;;;;;5019137;28;20032;-86
2022/08/31 12:53:51;;;;;;;9.63;7.60;;;16.60;99.90;;;;;;5031588;28;20033;-86
2022/08/31 12:57:07;;;;;;;11.25;8.57;;;16.60;99.90;;;;;;5021383;28;20602;-85
2022/08/31 12:59:38;;;;;;;12.35;8.15;;;16.60;99.90;;;;;;5007694;28;20069;-84
2022/08/31 13:02:04;;;;;;;11.32;7.80;;;16.60;99.90;;;;;;5020638;28;20051;-85
2022/08/31 13:04:30;;;;;;;12.32;7.85;;;16.60;99.90;;;;;;5017024;28;20033;-84